createdAt,value
2019-04-06T00:01:33.963Z,27.13
2019-04-06T00:04:00.048Z,30.68
2019-04-06T00:06:26.365Z,29.80
2019-04-06T00:08:52.435Z,32.08
2019-04-06T00:11:18.647Z,29.40
2019-04-06T00:13:44.836Z,31.80
2019-04-06T00:16:11.041Z,32.45
2019-04-06T00:18:37.154Z,29.70
2019-04-06T00:21:03.315Z,32.33
2019-04-06T00:23:29.499Z,34.15
2019-04-06T00:25:55.619Z,34.88
2019-04-06T00:28:21.755Z,33.95
2019-04-06T00:31:08.461Z,33.50
2019-04-06T00:33:34.566Z,32.65
2019-04-06T00:36:00.739Z,32.98
2019-04-06T00:38:26.970Z,29.50
2019-04-06T00:40:53.082Z,32.58
2019-04-06T00:43:19.267Z,33.33
2019-04-06T00:45:45.449Z,31.90
2019-04-06T00:48:11.620Z,31.00
2019-04-06T00:50:37.780Z,30.50
2019-04-06T00:53:03.966Z,38.73
2019-04-06T00:55:30.038Z,34.03
2019-04-06T00:57:56.159Z,32.98
2019-04-06T01:00:22.456Z,31.57
2019-04-06T01:02:48.557Z,31.23
2019-04-06T01:05:14.798Z,33.73
2019-04-06T01:07:40.879Z,34.50
2019-04-06T01:10:07.079Z,30.08
2019-04-06T01:12:33.264Z,43.45
2019-04-06T01:14:59.435Z,30.80
2019-04-06T01:17:26.000Z,37.03
2019-04-06T01:19:52.248Z,28.80
2019-04-06T01:22:18.337Z,29.70
2019-04-06T01:24:44.492Z,29.65
2019-04-06T01:27:11.530Z,30.97
2019-04-06T01:29:37.614Z,29.07
2019-04-06T01:32:03.862Z,31.42
2019-04-06T01:34:30.029Z,28.70
2019-04-06T01:36:56.124Z,31.87
2019-04-06T01:39:22.302Z,32.33
2019-04-06T01:41:48.492Z,35.95
2019-04-06T01:44:14.614Z,32.65
2019-04-06T01:46:40.751Z,34.60
2019-04-06T01:49:06.871Z,33.70
2019-04-06T01:51:33.069Z,31.62
2019-04-06T01:53:59.141Z,33.58
2019-04-06T01:56:25.237Z,28.27
2019-04-06T01:58:51.305Z,33.48
2019-04-06T02:01:19.355Z,33.18
2019-04-06T02:03:45.502Z,31.33
2019-04-06T02:06:11.621Z,33.55
2019-04-06T02:08:37.862Z,32.98
2019-04-06T02:11:04.069Z,33.67
2019-04-06T02:13:30.247Z,31.00
2019-04-06T02:15:56.368Z,32.05
2019-04-06T02:18:22.461Z,35.75
2019-04-06T02:20:48.536Z,39.03
2019-04-06T02:23:14.796Z,36.38
2019-04-06T02:25:40.876Z,40.63
2019-04-06T02:28:06.974Z,32.23
2019-04-06T02:30:34.958Z,38.63
2019-04-06T02:33:14.092Z,32.23
2019-04-06T02:35:44.258Z,39.95
2019-04-06T02:38:15.158Z,33.80
2019-04-06T02:41:01.307Z,37.20
2019-04-06T02:43:29.893Z,38.35
2019-04-06T02:45:56.061Z,35.65
2019-04-06T02:48:22.129Z,35.35
2019-04-06T02:50:48.217Z,41.05
2019-04-06T02:53:14.472Z,39.23
2019-04-06T02:55:40.582Z,38.70
2019-04-06T02:58:06.672Z,36.53
2019-04-06T03:00:33.096Z,36.20
2019-04-06T03:02:59.573Z,39.60
2019-04-06T03:05:25.669Z,36.33
2019-04-06T03:07:51.909Z,36.95
2019-04-06T03:10:18.011Z,42.13
2019-04-06T03:12:44.181Z,39.50
2019-04-06T03:15:10.657Z,35.70
2019-04-06T03:17:36.945Z,40.58
2019-04-06T03:20:05.652Z,38.92
2019-04-06T03:22:31.979Z,36.90
2019-04-06T03:24:58.193Z,38.25
2019-04-06T03:27:24.448Z,36.53
2019-04-06T03:29:57.903Z,37.45
2019-04-06T03:32:18.576Z,39.85
2019-04-06T03:34:44.677Z,40.35
2019-04-06T03:37:10.893Z,40.28
2019-04-06T03:39:37.078Z,43.65
2019-04-06T03:42:03.274Z,39.73
2019-04-06T03:44:29.383Z,38.58
2019-04-06T03:46:55.587Z,34.73
2019-04-06T03:49:21.779Z,40.73
2019-04-06T03:51:47.856Z,36.90
2019-04-06T03:54:13.971Z,37.30
2019-04-06T03:56:40.068Z,36.80
2019-04-06T03:59:06.184Z,37.80
2019-04-06T04:01:32.486Z,41.30
2019-04-06T04:03:58.659Z,36.20
2019-04-06T04:06:25.037Z,39.78
2019-04-06T04:08:51.244Z,41.28
2019-04-06T04:11:17.426Z,39.55
2019-04-06T04:13:43.595Z,40.25
2019-04-06T04:16:09.846Z,39.45
2019-04-06T04:18:35.968Z,40.60
2019-04-06T04:21:02.384Z,36.23
2019-04-06T04:23:28.642Z,36.38
2019-04-06T04:25:54.765Z,35.55
2019-04-06T04:28:20.898Z,34.03
2019-04-06T04:30:47.081Z,39.65
2019-04-06T04:33:13.237Z,37.35
2019-04-06T04:35:39.306Z,40.70
2019-04-06T04:38:05.388Z,34.92
2019-04-06T04:40:31.583Z,38.83
2019-04-06T04:42:57.880Z,35.63
2019-04-06T04:45:24.069Z,35.25
2019-04-06T04:47:50.535Z,35.25
2019-04-06T04:50:16.864Z,33.63
2019-04-06T04:52:43.043Z,35.92
2019-04-06T04:55:09.248Z,43.08
2019-04-06T04:57:41.186Z,38.05
2019-04-06T05:00:04.626Z,38.67
2019-04-06T05:02:30.787Z,36.45
2019-04-06T05:04:56.868Z,35.70
2019-04-06T05:07:22.970Z,40.40
2019-04-06T05:09:49.083Z,40.90
2019-04-06T05:12:15.212Z,36.05
2019-04-06T05:15:02.337Z,40.23
2019-04-06T05:17:29.416Z,41.20
2019-04-06T05:19:56.036Z,37.30
2019-04-06T05:22:22.240Z,38.75
2019-04-06T05:24:48.543Z,39.98
2019-04-06T05:27:14.897Z,44.25
2019-04-06T05:29:41.146Z,41.37
2019-04-06T05:32:07.357Z,41.65
2019-04-06T05:34:33.437Z,48.08
2019-04-06T05:36:59.528Z,38.60
2019-04-06T05:39:25.672Z,42.03
2019-04-06T05:41:51.916Z,40.35
2019-04-06T05:44:18.008Z,36.93
2019-04-06T05:46:44.240Z,42.43
2019-04-06T05:49:10.364Z,39.25
2019-04-06T05:51:36.441Z,36.25
2019-04-06T05:54:02.739Z,43.63
2019-04-06T05:56:28.866Z,40.98
2019-04-06T05:58:55.153Z,41.92
2019-04-06T06:01:21.278Z,44.70
2019-04-06T06:03:47.394Z,41.55
2019-04-06T06:06:13.501Z,45.12
2019-04-06T06:08:39.682Z,40.88
2019-04-06T06:11:05.768Z,42.35
2019-04-06T06:13:31.836Z,42.93
2019-04-06T06:15:57.919Z,39.50
2019-04-06T06:18:27.378Z,44.13
2019-04-06T06:20:52.337Z,42.35
2019-04-06T06:23:18.886Z,45.98
2019-04-06T06:25:45.245Z,41.98
2019-04-06T06:28:15.017Z,45.50
2019-04-06T06:30:39.344Z,44.75
2019-04-06T06:33:05.707Z,43.60
2019-04-06T06:35:32.037Z,43.78
2019-04-06T06:37:58.340Z,44.18
2019-04-06T06:40:24.525Z,39.38
2019-04-06T06:42:50.616Z,39.60
2019-04-06T06:45:16.798Z,39.95
2019-04-06T06:47:43.021Z,43.65
2019-04-06T06:50:09.368Z,35.85
2019-04-06T06:52:35.455Z,37.83
2019-04-06T06:55:01.913Z,38.53
2019-04-06T06:57:28.073Z,40.63
2019-04-06T06:59:54.190Z,36.80
2019-04-06T07:02:20.615Z,38.23
2019-04-06T07:04:46.762Z,38.70
2019-04-06T07:07:13.066Z,35.37
2019-04-06T07:09:39.297Z,36.23
2019-04-06T07:12:05.447Z,38.80
2019-04-06T07:14:31.624Z,31.50
2019-04-06T07:16:57.869Z,30.03
2019-04-06T07:19:23.968Z,40.53
2019-04-06T07:21:50.476Z,37.03
2019-04-06T07:24:16.628Z,31.70
2019-04-06T07:26:42.712Z,34.03
2019-04-06T07:29:09.653Z,33.73
2019-04-06T07:31:35.740Z,31.40
2019-04-06T07:34:02.029Z,33.80
2019-04-06T07:36:28.694Z,43.10
2019-04-06T07:38:54.991Z,30.40
2019-04-06T07:41:21.185Z,34.37
2019-04-06T07:43:47.393Z,33.67
2019-04-06T07:46:13.567Z,31.27
2019-04-06T07:48:39.669Z,30.17
2019-04-06T07:51:05.858Z,33.83
2019-04-06T07:53:31.918Z,32.40
2019-04-06T07:55:58.222Z,33.43
2019-04-06T07:58:24.393Z,31.23
2019-04-06T08:00:50.493Z,32.37
2019-04-06T08:03:16.589Z,32.33
2019-04-06T08:05:42.780Z,32.73
2019-04-06T08:08:08.997Z,28.97
2019-04-06T08:10:35.155Z,31.37
2019-04-06T08:13:01.246Z,31.53
2019-04-06T08:15:27.437Z,31.33
2019-04-06T08:17:53.514Z,31.93
2019-04-06T08:20:19.592Z,32.53
2019-04-06T08:22:45.677Z,33.63
2019-04-06T08:25:11.960Z,28.57
2019-04-06T08:27:38.047Z,33.73
2019-04-06T08:30:08.525Z,36.93
2019-04-06T08:32:35.333Z,33.00
2019-04-06T08:35:01.842Z,29.93
2019-04-06T08:37:27.992Z,30.97
2019-04-06T08:39:54.160Z,33.17
2019-04-06T08:42:20.251Z,32.93
2019-04-06T08:44:46.345Z,29.40
2019-04-06T08:47:12.504Z,31.50
2019-04-06T08:49:38.595Z,28.10
2019-04-06T08:52:04.674Z,31.50
2019-04-06T08:54:30.730Z,27.90
2019-04-06T08:56:56.803Z,25.80
2019-04-06T08:59:22.919Z,32.57
2019-04-06T09:01:49.011Z,25.03
2019-04-06T09:04:15.464Z,24.40
2019-04-06T09:06:41.785Z,24.77
2019-04-06T09:09:07.987Z,26.87
2019-04-06T09:11:34.238Z,28.90
2019-04-06T09:14:00.369Z,26.70
2019-04-06T09:16:26.709Z,27.43
2019-04-06T09:18:52.841Z,28.40
2019-04-06T09:21:19.004Z,30.30
2019-04-06T09:23:45.072Z,28.73
2019-04-06T09:26:11.163Z,25.40
2019-04-06T09:28:37.634Z,24.60
2019-04-06T09:31:03.841Z,27.53
2019-04-06T09:33:29.912Z,28.93
2019-04-06T09:35:56.100Z,28.57
2019-04-06T09:38:22.295Z,26.30
2019-04-06T09:40:48.581Z,25.20
2019-04-06T09:43:14.779Z,28.30
2019-04-06T09:45:42.739Z,25.77
2019-04-06T09:48:13.866Z,23.57
2019-04-06T09:50:42.149Z,28.60
2019-04-06T09:53:28.181Z,26.70
2019-04-06T09:56:07.909Z,27.53
2019-04-06T09:58:52.479Z,26.00
2019-04-06T10:01:23.935Z,23.97
2019-04-06T10:04:04.283Z,27.80
2019-04-06T10:06:38.743Z,22.50
2019-04-06T10:09:11.357Z,22.37
2019-04-06T10:11:42.384Z,19.43
2019-04-06T10:14:25.670Z,21.27
2019-04-06T10:17:05.713Z,24.30
2019-04-06T10:19:36.596Z,21.63
2019-04-06T10:22:17.243Z,20.50
2019-04-06T10:25:00.133Z,20.30
2019-04-06T10:27:43.431Z,22.23
2019-04-06T10:30:12.419Z,22.37
2019-04-06T10:32:40.733Z,20.37
2019-04-06T10:35:14.951Z,25.13
2019-04-06T10:37:54.958Z,18.57
2019-04-06T10:40:32.307Z,20.17
2019-04-06T10:43:00.574Z,18.83
2019-04-06T10:45:40.774Z,21.30
2019-04-06T10:48:24.346Z,23.67
2019-04-06T10:51:04.072Z,23.03
2019-04-06T10:53:35.301Z,20.33
2019-04-06T10:56:20.171Z,19.40
2019-04-06T10:58:51.031Z,23.23
2019-04-06T11:01:18.995Z,19.93
2019-04-06T11:03:54.501Z,19.50
2019-04-06T11:06:37.664Z,19.07
2019-04-06T11:09:11.133Z,19.20
2019-04-06T11:11:45.114Z,19.37
2019-04-06T11:14:19.057Z,20.17
2019-04-06T11:16:53.115Z,18.17
2019-04-06T11:19:30.074Z,21.13
2019-04-06T11:22:13.171Z,19.00
2019-04-06T11:24:47.490Z,21.47
2019-04-06T11:27:18.372Z,17.60
2019-04-06T11:29:46.579Z,16.37
2019-04-06T11:32:23.685Z,22.63
2019-04-06T11:34:57.720Z,22.37
2019-04-06T11:37:42.204Z,21.70
2019-04-06T11:40:13.713Z,17.80
2019-04-06T11:42:50.556Z,16.00
2019-04-06T11:45:33.627Z,16.37
2019-04-06T11:48:07.409Z,16.87
2019-04-06T11:50:38.251Z,18.07
2019-04-06T11:53:09.189Z,15.33
2019-04-06T11:55:37.270Z,16.53
2019-04-06T11:58:11.383Z,18.17
2019-04-06T12:00:51.403Z,17.33
2019-04-06T12:03:31.514Z,18.30
2019-04-06T12:06:02.356Z,17.07
2019-04-06T12:08:39.319Z,17.40
2019-04-06T12:11:22.363Z,18.13
2019-04-06T12:14:07.012Z,18.27
2019-04-06T12:16:43.816Z,17.53
2019-04-06T12:19:11.960Z,17.43
2019-04-06T12:21:40.019Z,20.60
2019-04-06T12:24:13.822Z,23.40
2019-04-06T12:26:41.777Z,18.63
2019-04-06T12:29:18.741Z,19.60
2019-04-06T12:32:04.784Z,18.03
2019-04-06T12:34:41.839Z,15.77
2019-04-06T12:37:12.717Z,14.90
2019-04-06T12:39:53.441Z,15.13
2019-04-06T12:42:26.149Z,16.27
2019-04-06T12:45:10.860Z,13.27
2019-04-06T12:47:38.900Z,12.20
2019-04-06T12:50:23.987Z,15.60
2019-04-06T12:52:57.965Z,15.80
2019-04-06T12:55:25.985Z,14.73
2019-04-06T12:58:11.151Z,13.00
2019-04-06T13:00:56.136Z,14.13
2019-04-06T13:03:30.117Z,15.33
2019-04-06T13:06:16.328Z,13.63
2019-04-06T13:08:47.263Z,12.10
2019-04-06T13:11:31.910Z,10.70
2019-04-06T13:14:03.152Z,12.00
2019-04-06T13:16:34.125Z,12.20
2019-04-06T13:19:08.419Z,12.90
2019-04-06T13:21:54.171Z,11.10
2019-04-06T13:24:37.548Z,10.60
2019-04-06T13:27:08.991Z,10.33
2019-04-06T13:29:37.094Z,8.97
2019-04-06T13:32:08.213Z,8.60
2019-04-06T13:34:39.145Z,8.80
2019-04-06T13:37:10.764Z,8.40
2019-04-06T13:39:38.956Z,9.03
2019-04-06T13:42:19.331Z,9.83
2019-04-06T13:44:47.699Z,8.40
2019-04-06T13:47:18.672Z,7.53
2019-04-06T13:49:52.981Z,7.40
2019-04-06T13:52:27.547Z,8.00
2019-04-06T13:55:08.004Z,8.77
2019-04-06T13:57:37.005Z,7.10
2019-04-06T14:00:06.786Z,6.30
2019-04-06T14:02:37.967Z,7.20
2019-04-06T14:05:19.673Z,6.30
2019-04-06T14:08:04.497Z,6.67
2019-04-06T14:10:33.178Z,7.57
2019-04-06T14:13:07.927Z,8.30
2019-04-06T14:15:36.516Z,7.60
2019-04-06T14:18:11.157Z,8.47
2019-04-06T14:20:51.824Z,7.73
2019-04-06T14:23:23.453Z,6.30
2019-04-06T14:26:01.067Z,8.53
2019-04-06T14:28:29.702Z,7.20
2019-04-06T14:30:58.275Z,6.37
2019-04-06T14:33:38.820Z,5.87
2019-04-06T14:36:16.499Z,6.17
2019-04-06T14:38:45.451Z,6.97
2019-04-06T14:41:16.916Z,6.93
2019-04-06T14:43:48.186Z,5.30
2019-04-06T14:46:19.184Z,5.67
2019-04-06T14:48:50.014Z,4.30
2019-04-06T14:51:23.785Z,5.10
2019-04-06T14:54:06.908Z,4.83
2019-04-06T14:56:35.052Z,4.47
2019-04-06T14:59:06.124Z,4.13
2019-04-06T15:01:51.072Z,3.83
2019-04-06T15:04:25.401Z,3.77
2019-04-06T15:07:09.450Z,4.60
2019-04-06T15:09:38.219Z,3.50
2019-04-06T15:12:06.345Z,3.37
2019-04-06T15:14:40.396Z,3.37
2019-04-06T15:17:11.750Z,2.60
2019-04-06T15:19:57.019Z,2.50
2019-04-06T15:22:31.359Z,2.30
2019-04-06T15:25:02.385Z,2.47
2019-04-06T15:27:47.209Z,2.87
2019-04-06T15:30:16.846Z,2.43
2019-04-06T15:32:57.201Z,1.93
2019-04-06T15:35:40.374Z,1.97
2019-04-06T15:38:14.251Z,1.70
2019-04-06T15:40:48.193Z,2.27
2019-04-06T15:43:25.419Z,2.10
2019-04-06T15:45:56.381Z,2.60
2019-04-06T15:48:37.021Z,2.37
2019-04-06T15:51:05.671Z,2.60
2019-04-06T15:53:33.654Z,1.50
2019-04-06T15:56:13.777Z,2.20
2019-04-06T15:58:42.217Z,2.50
2019-04-06T16:01:13.112Z,1.70
2019-04-06T16:03:43.908Z,1.60
2019-04-06T16:06:30.456Z,2.07
2019-04-06T16:08:58.520Z,1.60
2019-04-06T16:11:44.651Z,1.70
2019-04-06T16:14:12.709Z,1.60
2019-04-06T16:16:49.933Z,1.67
2019-04-06T16:19:30.360Z,1.40
2019-04-06T16:22:01.153Z,1.80
2019-04-06T16:24:34.954Z,1.80
2019-04-06T16:27:21.506Z,1.87
2019-04-06T16:29:58.543Z,1.60
2019-04-06T16:32:35.554Z,1.80
2019-04-06T16:35:06.608Z,1.87
2019-04-06T16:37:51.464Z,1.80
2019-04-06T16:40:25.779Z,2.00
2019-04-06T16:42:53.977Z,2.07
2019-04-06T16:45:37.816Z,1.70
2019-04-06T16:48:12.276Z,1.60
2019-04-06T16:53:43.102Z,2.33
2019-04-06T16:56:14.056Z,1.80
2019-04-06T16:58:42.304Z,1.80
2019-04-06T17:01:10.545Z,2.57
2019-04-06T17:03:38.555Z,2.33
2019-04-06T17:06:19.411Z,2.57
2019-04-06T17:08:47.480Z,2.10
2019-04-06T17:11:21.887Z,1.90
2019-04-06T17:14:00.124Z,1.97
2019-04-06T17:16:31.116Z,1.77
2019-04-06T17:18:59.150Z,2.00
2019-04-06T17:21:27.134Z,2.17
2019-04-06T17:24:12.188Z,2.07
2019-04-06T17:26:40.217Z,2.10
2019-04-06T17:29:13.845Z,2.20
2019-04-06T17:31:44.401Z,2.50
2019-04-06T17:34:24.836Z,2.30
2019-04-06T17:36:53.744Z,2.20
2019-04-06T17:39:37.829Z,2.10
2019-04-06T17:42:18.099Z,2.77
2019-04-06T17:44:47.534Z,4.50
2019-04-06T17:47:19.509Z,2.70
2019-04-06T17:50:00.050Z,2.60
2019-04-06T17:52:34.229Z,2.80
2019-04-06T17:55:09.531Z,2.57
2019-04-06T18:00:38.452Z,2.30
2019-04-06T18:03:10.338Z,1.93
2019-04-06T18:05:56.966Z,2.07
2019-04-06T18:08:43.902Z,2.27
2019-04-06T18:11:22.607Z,2.57
2019-04-06T18:13:50.048Z,2.10
2019-04-06T18:16:21.390Z,2.60
2019-04-06T18:18:48.213Z,2.37
2019-04-06T18:21:14.296Z,2.37
2019-04-06T18:23:40.388Z,2.37
2019-04-06T18:26:06.634Z,2.20
2019-04-06T18:28:33.042Z,2.37
2019-04-06T18:31:04.034Z,2.10
2019-04-06T18:33:30.249Z,2.50
2019-04-06T18:35:57.341Z,2.93
2019-04-06T18:38:25.528Z,2.43
2019-04-06T18:40:51.609Z,2.80
2019-04-06T18:43:17.825Z,2.77
2019-04-06T18:45:44.053Z,3.13
2019-04-06T18:48:10.184Z,2.70
2019-04-06T18:50:38.870Z,2.90
2019-04-06T18:53:04.470Z,2.70
2019-04-06T18:55:31.279Z,3.27
2019-04-06T18:58:08.701Z,2.80
2019-04-06T19:00:26.362Z,2.70
2019-04-06T19:02:52.711Z,3.23
2019-04-06T19:05:19.368Z,3.33
2019-04-06T19:07:45.721Z,4.53
2019-04-06T19:10:19.172Z,4.27
2019-04-06T19:12:45.251Z,3.77
2019-04-06T19:15:11.828Z,3.47
2019-04-06T19:17:38.842Z,3.70
2019-04-06T19:20:07.128Z,3.60
2019-04-06T19:22:33.270Z,4.03
2019-04-06T19:24:59.336Z,2.80
2019-04-06T19:27:25.438Z,3.37
2019-04-06T19:29:51.920Z,2.63
2019-04-06T19:32:18.252Z,2.70
2019-04-06T19:34:44.373Z,3.03
2019-04-06T19:37:11.176Z,2.80
2019-04-06T19:39:37.507Z,2.63
2019-04-06T19:42:03.870Z,2.40
2019-04-06T19:44:30.197Z,3.07
2019-04-06T19:46:56.529Z,2.90
2019-04-06T19:49:23.088Z,2.60
2019-04-06T19:51:49.522Z,2.30
2019-04-06T19:54:15.748Z,2.50
2019-04-06T19:56:41.855Z,2.60
2019-04-06T19:59:08.735Z,2.43
2019-04-06T20:01:34.970Z,2.93
2019-04-06T20:04:01.049Z,2.60
2019-04-06T20:06:27.148Z,3.27
2019-04-06T20:08:53.225Z,3.20
2019-04-06T20:11:19.406Z,2.10
2019-04-06T20:13:45.670Z,2.57
2019-04-06T20:16:12.119Z,2.20
2019-04-06T20:18:38.941Z,4.73
2019-04-06T20:21:05.285Z,2.40
2019-04-06T20:23:31.491Z,2.57
2019-04-06T20:25:57.752Z,4.40
2019-04-06T20:28:24.363Z,2.53
2019-04-06T20:30:50.813Z,2.57
2019-04-06T20:33:19.208Z,5.87
2019-04-06T20:35:44.939Z,2.50
2019-04-06T20:38:11.511Z,2.93
2019-04-06T20:40:37.928Z,2.83
2019-04-06T20:43:04.116Z,2.53
2019-04-06T20:45:30.185Z,2.70
2019-04-06T20:47:56.284Z,2.60
2019-04-06T20:50:22.456Z,2.83
2019-04-06T20:52:48.550Z,3.07
2019-04-06T20:55:14.612Z,4.10
2019-04-06T20:57:41.084Z,2.73
2019-04-06T21:00:08.690Z,2.40
2019-04-06T21:02:35.046Z,2.43
2019-04-06T21:05:02.094Z,2.40
2019-04-06T21:07:28.615Z,3.63
2019-04-06T21:09:55.071Z,2.53
2019-04-06T21:12:21.193Z,2.33
2019-04-06T21:14:47.283Z,2.70
2019-04-06T21:17:13.361Z,2.57
2019-04-06T21:19:39.485Z,3.20
2019-04-06T21:22:05.765Z,3.40
2019-04-06T21:24:32.860Z,2.90
2019-04-06T21:26:59.697Z,2.40
2019-04-06T21:29:25.925Z,3.27
2019-04-06T21:31:52.028Z,3.15
2019-04-06T21:34:18.287Z,3.10
2019-04-06T21:36:44.975Z,3.33
2019-04-06T21:39:11.070Z,2.80
2019-04-06T21:41:37.437Z,2.95
2019-04-06T21:44:03.636Z,2.98
2019-04-06T21:46:29.828Z,2.90
2019-04-06T21:48:55.905Z,2.80
2019-04-06T21:51:22.143Z,2.72
2019-04-06T21:53:48.319Z,2.70
2019-04-06T21:56:14.538Z,2.33
2019-04-06T21:58:40.635Z,2.37
2019-04-06T22:01:07.447Z,2.15
2019-04-06T22:03:33.821Z,2.60
2019-04-06T22:06:01.289Z,3.35
2019-04-06T22:08:27.791Z,2.52
2019-04-06T22:10:54.028Z,2.37
2019-04-06T22:13:20.683Z,2.60
2019-04-06T22:15:47.344Z,2.25
2019-04-06T22:18:13.595Z,2.60
2019-04-06T22:20:39.923Z,2.30
2019-04-06T22:23:06.621Z,2.75
2019-04-06T22:25:33.813Z,2.40
2019-04-06T22:28:00.732Z,2.42
2019-04-06T22:30:27.431Z,2.20
2019-04-06T22:32:53.736Z,2.20
2019-04-06T22:35:20.433Z,2.50
2019-04-06T22:37:47.449Z,2.15
2019-04-06T22:40:14.244Z,3.10
2019-04-06T22:42:41.091Z,2.60
2019-04-06T22:45:09.707Z,2.35
2019-04-06T22:47:35.951Z,3.90
2019-04-06T22:50:03.961Z,2.60
2019-04-06T22:52:30.690Z,2.75
2019-04-06T22:54:56.974Z,3.33
2019-04-06T22:57:23.170Z,3.27
2019-04-06T22:59:49.473Z,3.42
2019-04-06T23:02:15.727Z,3.40
2019-04-06T23:04:48.576Z,3.00
2019-04-06T23:07:13.716Z,3.10
2019-04-06T23:09:39.981Z,3.92
2019-04-06T23:12:06.447Z,3.33
2019-04-06T23:14:32.908Z,3.60
2019-04-06T23:16:59.777Z,3.60
2019-04-06T23:19:26.119Z,4.00
2019-04-06T23:21:52.391Z,3.20
2019-04-06T23:24:18.630Z,2.90
2019-04-06T23:26:45.484Z,3.27
2019-04-06T23:29:11.641Z,2.95
2019-04-06T23:31:38.366Z,2.65
2019-04-06T23:34:04.520Z,2.70
2019-04-06T23:36:30.742Z,3.02
2019-04-06T23:38:57.480Z,2.70
2019-04-06T23:41:23.848Z,3.30
2019-04-06T23:43:50.795Z,3.05
2019-04-06T23:46:17.774Z,3.15
2019-04-06T23:48:44.129Z,3.20
2019-04-06T23:51:10.691Z,6.17
2019-04-06T23:53:37.315Z,3.35
2019-04-06T23:56:03.472Z,4.05
2019-04-06T23:58:29.732Z,3.08
